Time;durP1;ratioP1;P1;durP2;ratioP2;P2;SDS_P1;SDS_P2;PMS_P1;PMS_P2;Temp;Humidity;BMP_temperature;BMP_pressure;BME280_temperature;BME280_humidity;BME280_pressure;Samples;Min_cycle;Max_cycle;Signal;HPM_P1;HPM_P2
2023/07/22 00:01:34;;;;;;;4.75;4.28;;;;;;;20.18;58.34;99726.59;5074197;28;20201;-69
2023/07/22 00:04:03;;;;;;;5.63;4.65;;;;;;;20.22;58.90;99717.66;5074659;28;20236;-68
2023/07/22 00:06:31;;;;;;;7.43;4.82;;;;;;;20.25;59.50;99712.25;5074312;28;20225;-67
2023/07/22 00:08:59;;;;;;;4.32;3.92;;;;;;;20.30;60.32;99711.16;5074497;28;20544;-69
2023/07/22 00:11:28;;;;;;;4.88;4.47;;;;;;;20.33;60.60;99708.34;5074341;28;20291;-69
2023/07/22 00:13:56;;;;;;;6.25;4.47;;;;;;;20.35;60.61;99709.09;5074034;28;20288;-68
2023/07/22 00:16:24;;;;;;;6.88;4.25;;;;;;;20.35;61.23;99709.94;5074121;28;20201;-70
2023/07/22 00:18:53;;;;;;;4.85;4.38;;;;;;;20.37;61.39;99712.47;5074274;28;20580;-68
2023/07/22 00:21:21;;;;;;;4.20;3.83;;;;;;;20.37;61.32;99715.09;5072826;28;20202;-68
2023/07/22 00:23:49;;;;;;;3.85;3.55;;;;;;;20.34;60.82;99710.88;5074023;28;20302;-68
2023/07/22 00:26:17;;;;;;;4.00;3.63;;;;;;;20.35;60.62;99709.09;5064856;28;20225;-68
2023/07/22 00:28:46;;;;;;;4.47;4.03;;;;;;;20.30;60.19;99711.16;5073968;28;20197;-69
2023/07/22 00:31:14;;;;;;;4.90;3.55;;;;;;;20.25;60.14;99709.63;5073585;28;20669;-67
2023/07/22 00:33:42;;;;;;;4.55;4.05;;;;;;;20.24;60.35;99707.94;5074111;28;20228;-67
2023/07/22 00:36:10;;;;;;;4.15;3.75;;;;;;;20.24;61.03;99710.53;5073674;28;20209;-68
2023/07/22 00:38:39;;;;;;;6.40;4.00;;;;;;;20.23;60.65;99710.66;5069667;28;20276;-68
2023/07/22 00:41:08;;;;;;;4.57;3.80;;;;;;;20.21;60.74;99705.50;5065505;28;20288;-67
2023/07/22 00:43:36;;;;;;;5.35;3.97;;;;;;;20.20;60.92;99701.19;5071543;28;20215;-67
2023/07/22 00:46:05;;;;;;;6.82;3.95;;;;;;;20.17;60.70;99696.13;5072981;28;20270;-68
2023/07/22 00:48:34;;;;;;;4.53;4.13;;;;;;;20.16;61.09;99698.84;5073346;28;20216;-67
2023/07/22 00:51:02;;;;;;;5.38;4.18;;;;;;;20.15;60.98;99695.38;5073568;28;20229;-68
2023/07/22 00:53:30;;;;;;;5.30;4.15;;;;;;;20.13;60.47;99697.22;5069062;28;20213;-69
2023/07/22 00:55:58;;;;;;;5.32;4.05;;;;;;;20.11;60.98;99701.72;5072866;28;20255;-68
2023/07/22 00:58:26;;;;;;;4.97;4.22;;;;;;;20.11;60.88;99706.13;5073202;28;20258;-68
2023/07/22 01:00:54;;;;;;;4.88;4.45;;;;;;;20.12;61.36;99706.03;5073645;28;20635;-67
2023/07/22 01:03:24;;;;;;;4.28;3.88;;;;;;;20.12;60.97;99703.41;5073277;28;20342;-68
2023/07/22 01:05:54;;;;;;;6.30;4.00;;;;;;;20.09;60.95;99698.34;5073094;28;20323;-68
2023/07/22 01:08:22;;;;;;;4.07;3.67;;;;;;;20.09;61.01;99698.34;5073010;28;20209;-68
2023/07/22 01:10:50;;;;;;;4.70;4.22;;;;;;;20.10;61.23;99686.94;5073171;28;20232;-68
2023/07/22 01:13:19;;;;;;;5.43;4.75;;;;;;;20.08;61.27;99678.34;5073103;28;20216;-68
2023/07/22 01:15:48;;;;;;;5.03;4.22;;;;;;;20.06;61.58;99680.19;5073000;28;20193;-70
2023/07/22 01:18:16;;;;;;;4.97;4.47;;;;;;;20.03;61.84;99688.25;5073207;28;20205;-68
2023/07/22 01:20:47;;;;;;;5.65;4.35;;;;;;;20.01;62.02;99685.69;5071695;28;20197;-68
2023/07/22 01:23:17;;;;;;;4.60;4.20;;;;;;;20.03;61.89;99677.78;5070648;28;20581;-66
2023/07/22 01:25:46;;;;;;;4.57;4.18;;;;;;;20.02;62.16;99673.47;5068161;28;20229;-68
2023/07/22 01:28:14;;;;;;;6.20;4.75;;;;;;;19.93;62.64;99666.97;5072755;28;20229;-69
2023/07/22 01:30:42;;;;;;;6.18;5.40;;;;;;;19.89;62.42;99664.63;5072999;28;20729;-68
2023/07/22 01:33:10;;;;;;;6.00;5.40;;;;;;;19.83;62.78;99657.13;5072648;28;20220;-70
2023/07/22 01:35:38;;;;;;;6.38;5.70;;;;;;;19.79;63.17;99649.44;5072734;28;20193;-69
2023/07/22 01:38:07;;;;;;;6.72;5.68;;;;;;;19.78;63.04;99650.38;5072962;28;20205;-68
2023/07/22 01:40:38;;;;;;;6.03;5.43;;;;;;;19.75;62.94;99647.94;5059146;28;20990;-68
2023/07/22 01:43:05;;;;;;;7.80;4.95;;;;;;;19.73;63.17;99652.38;5072600;28;20263;-68
2023/07/22 01:45:33;;;;;;;5.55;5.05;;;;;;;19.75;63.38;99653.16;5058862;28;20225;-68
2023/07/22 01:48:01;;;;;;;5.63;5.05;;;;;;;19.73;63.47;99647.16;5072427;28;20206;-68
2023/07/22 01:50:29;;;;;;;5.45;4.95;;;;;;;19.68;63.53;99643.97;5070453;28;20197;-69
2023/07/22 01:52:57;;;;;;;5.68;5.18;;;;;;;19.67;63.76;99647.53;5072307;28;20205;-68
2023/07/22 01:55:25;;;;;;;5.70;5.20;;;;;;;19.67;64.31;99639.69;5072223;28;20202;-67
2023/07/22 01:57:55;;;;;;;7.57;5.22;;;;;;;19.67;64.05;99644.91;5072316;28;20228;-69
2023/07/22 02:00:23;;;;;;;6.53;5.50;;;;;;;19.64;63.96;99647.69;5072446;28;20541;-68
2023/07/22 02:02:51;;;;;;;5.75;5.25;;;;;;;19.62;64.16;99652.16;5072605;28;20604;-68
2023/07/22 02:05:19;;;;;;;6.20;5.60;;;;;;;19.58;64.16;99649.75;5072160;28;20271;-69
2023/07/22 02:07:47;;;;;;;6.53;5.05;;;;;;;19.55;64.35;99651.63;5072354;28;20217;-68
2023/07/22 02:10:15;;;;;;;6.28;5.63;;;;;;;19.51;64.38;99649.25;5072067;28;20212;-69
2023/07/22 02:12:43;;;;;;;6.20;5.60;;;;;;;19.46;64.54;99651.28;5072149;28;20704;-67
2023/07/22 02:15:12;;;;;;;6.95;5.68;;;;;;;19.42;64.85;99652.38;5071893;28;20233;-67
2023/07/22 02:17:41;;;;;;;8.57;5.55;;;;;;;19.40;64.79;99655.06;5072019;28;20644;-69
2023/07/22 02:20:09;;;;;;;6.05;5.45;;;;;;;19.39;65.10;99655.16;5068080;28;20202;-68
2023/07/22 02:22:37;;;;;;;7.38;5.50;;;;;;;19.36;65.30;99655.31;5070656;28;20710;-67
2023/07/22 02:25:07;;;;;;;6.80;5.43;;;;;;;19.37;65.57;99651.75;5070648;28;20215;-68
2023/07/22 02:27:35;;;;;;;5.63;5.13;;;;;;;19.40;65.25;99651.59;5069643;28;20227;-69
2023/07/22 02:30:04;;;;;;;6.75;6.15;;;;;;;19.41;65.27;99648.09;5071590;28;20201;-69
2023/07/22 02:32:33;;;;;;;6.18;5.68;;;;;;;19.40;65.18;99649.00;5071339;28;20237;-68
2023/07/22 02:35:01;;;;;;;8.02;6.45;;;;;;;19.38;65.13;99654.31;5070063;28;20656;-69
2023/07/22 02:37:29;;;;;;;6.78;6.07;;;;;;;19.33;65.26;99650.25;5071760;28;20209;-68
2023/07/22 02:39:57;;;;;;;7.28;6.65;;;;;;;19.27;65.69;99651.44;5058603;28;20226;-68
2023/07/22 02:42:25;;;;;;;6.93;6.22;;;;;;;19.19;65.81;99659.69;5071755;28;20216;-68
2023/07/22 02:44:53;;;;;;;7.90;6.07;;;;;;;19.15;66.48;99655.56;5071289;28;20213;-70
2023/07/22 02:47:21;;;;;;;7.28;6.57;;;;;;;19.12;66.39;99647.03;5071546;28;20225;-68
2023/07/22 02:49:51;;;;;;;9.98;6.90;;;;;;;19.08;66.36;99648.97;5071712;28;20656;-74
2023/07/22 02:52:18;;;;;;;7.93;6.60;;;;;;;19.06;66.66;99648.19;5070963;28;20209;-70
2023/07/22 02:55:06;;;;;;;7.10;6.50;;;;;;;19.00;66.65;99646.75;5071530;28;20229;-68
2023/07/22 02:57:35;;;;;;;8.20;7.30;;;;;;;18.97;67.08;99646.91;5071513;28;20968;-69
2023/07/22 03:00:07;;;;;;;8.45;7.57;;;;;;;18.90;67.06;99642.09;5069290;28;20197;-69
2023/07/22 03:02:35;;;;;;;7.88;7.18;;;;;;;18.82;67.69;99642.50;5057518;28;20547;-68
2023/07/22 03:05:07;;;;;;;7.68;6.97;;;;;;;18.74;67.89;99640.28;5071445;28;20271;-68
2023/07/22 03:07:36;;;;;;;7.50;6.85;;;;;;;18.72;68.19;99643.88;5071211;28;20213;-68
2023/07/22 03:10:04;;;;;;;8.20;7.40;;;;;;;18.67;68.42;99643.22;5071124;28;20212;-68
2023/07/22 03:12:32;;;;;;;8.40;7.22;;;;;;;18.64;68.69;99641.66;5071283;28;21011;-68
2023/07/22 03:15:01;;;;;;;8.13;7.22;;;;;;;18.62;68.90;99637.41;5070187;28;20600;-68
2023/07/22 03:17:29;;;;;;;10.98;7.60;;;;;;;18.60;69.11;99634.91;5067451;28;20248;-68
2023/07/22 03:19:57;;;;;;;8.00;7.25;;;;;;;18.56;69.40;99638.59;5061212;28;20208;-68
2023/07/22 03:22:26;;;;;;;7.63;6.93;;;;;;;18.57;69.49;99637.66;5070963;28;20205;-68
2023/07/22 03:24:54;;;;;;;8.18;7.38;;;;;;;18.58;69.43;99639.34;5059047;28;20220;-69
2023/07/22 03:27:22;;;;;;;8.30;7.60;;;;;;;18.59;69.41;99631.44;5061623;28;20217;-68
2023/07/22 03:29:50;;;;;;;8.15;7.05;;;;;;;18.62;69.64;99630.44;5070669;28;20217;-68
2023/07/22 03:32:18;;;;;;;8.00;7.20;;;;;;;18.67;69.32;99641.50;5070181;28;20272;-70
2023/07/22 03:34:46;;;;;;;8.35;6.88;;;;;;;18.65;69.34;99645.94;5070723;28;20207;-68
2023/07/22 03:37:14;;;;;;;8.05;7.20;;;;;;;18.70;69.30;99645.69;5070868;28;20231;-69
2023/07/22 03:39:43;;;;;;;8.02;7.22;;;;;;;18.69;69.38;99644.00;5058030;28;20668;-68
2023/07/22 03:42:11;;;;;;;7.57;6.85;;;;;;;18.67;69.65;99641.50;5057569;28;20216;-68
2023/07/22 03:44:40;;;;;;;9.55;7.25;;;;;;;18.69;69.72;99647.47;5071073;28;20675;-67
2023/07/22 03:47:08;;;;;;;7.97;7.13;;;;;;;18.71;69.55;99637.84;5070713;28;20221;-67
2023/07/22 03:49:36;;;;;;;7.70;6.93;;;;;;;18.70;69.60;99640.47;5070613;28;20209;-71
2023/07/22 03:52:05;;;;;;;8.05;7.25;;;;;;;18.70;69.78;99651.75;5070422;28;20197;-68
2023/07/22 03:54:33;;;;;;;7.90;6.45;;;;;;;18.67;69.95;99653.66;5065560;28;20247;-70
2023/07/22 03:57:02;;;;;;;7.78;6.97;;;;;;;18.66;70.14;99654.59;5068120;28;20555;-69
2023/07/22 03:59:30;;;;;;;7.60;6.90;;;;;;;18.67;70.12;99651.06;5068821;28;20209;-68
2023/07/22 04:01:58;;;;;;;8.77;7.50;;;;;;;18.64;70.30;99653.84;5070663;28;20209;-71
2023/07/22 04:04:26;;;;;;;8.15;7.03;;;;;;;18.59;70.83;99654.06;5058362;28;20286;-68
2023/07/22 04:06:54;;;;;;;7.88;6.82;;;;;;;18.60;70.64;99650.56;5070439;28;20228;-71
2023/07/22 04:09:21;;;;;;;10.05;6.90;;;;;;;18.69;70.92;99654.44;5070916;28;20579;-67
2023/07/22 04:11:49;;;;;;;8.18;7.35;;;;;;;18.75;70.30;99651.56;5070693;28;20283;-70
2023/07/22 04:14:19;;;;;;;8.98;6.78;;;;;;;18.79;70.29;99646.09;5056206;28;20197;-71
2023/07/22 04:16:47;;;;;;;7.55;6.85;;;;;;;18.87;70.06;99652.69;5070719;28;20209;-68
2023/07/22 04:19:16;;;;;;;7.78;7.07;;;;;;;18.92;69.67;99646.28;5070320;28;20197;-68
2023/07/22 04:21:44;;;;;;;7.07;6.28;;;;;;;19.00;69.46;99651.09;5070588;28;20276;-69
2023/07/22 04:24:12;;;;;;;8.43;6.10;;;;;;;18.99;68.98;99649.44;5065048;28;20635;-69
2023/07/22 04:26:42;;;;;;;6.78;5.93;;;;;;;19.00;69.33;99648.50;5065826;28;20246;-69
2023/07/22 04:29:11;;;;;;;6.03;5.53;;;;;;;19.04;68.94;99658.72;5070568;28;20205;-69
2023/07/22 04:31:41;;;;;;;7.25;6.20;;;;;;;19.05;68.63;99654.34;5070085;28;20298;-72
2023/07/22 04:34:09;;;;;;;6.78;5.85;;;;;;;19.07;68.76;99660.31;5070657;28;20205;-68
2023/07/22 04:36:37;;;;;;;7.00;6.30;;;;;;;19.06;68.72;99661.25;5070111;28;20213;-70
2023/07/22 04:39:06;;;;;;;6.82;6.15;;;;;;;19.04;68.77;99658.72;5062347;28;20206;-69
2023/07/22 04:41:33;;;;;;;8.57;6.15;;;;;;;19.09;68.96;99668.91;5065538;28;20232;-70
2023/07/22 04:44:02;;;;;;;6.88;6.28;;;;;;;19.06;68.59;99658.63;5070865;28;20210;-69
2023/07/22 04:46:30;;;;;;;8.27;6.40;;;;;;;19.08;69.13;99676.84;5073676;28;20205;-68
2023/07/22 04:48:59;;;;;;;6.90;6.30;;;;;;;19.03;68.34;99669.22;5073673;28;20217;-68
2023/07/22 04:51:27;;;;;;;8.27;6.65;;;;;;;18.93;69.26;99683.72;5073585;28;20201;-69
2023/07/22 04:53:55;;;;;;;7.28;6.50;;;;;;;18.87;69.04;99671.81;5070404;28;20231;-68
2023/07/22 04:56:24;;;;;;;7.18;6.47;;;;;;;18.82;69.42;99671.22;5073110;28;20630;-69
2023/07/22 04:58:52;;;;;;;7.93;6.60;;;;;;;18.85;69.55;99678.03;5073530;28;20644;-69
2023/07/22 05:01:20;;;;;;;6.72;6.03;;;;;;;18.83;69.64;99684.19;5073708;28;20216;-68
2023/07/22 05:03:48;;;;;;;7.10;6.40;;;;;;;18.80;70.14;99680.88;5073550;28;20201;-69
2023/07/22 05:06:17;;;;;;;8.10;7.30;;;;;;;18.75;70.17;99691.56;5073408;28;20208;-69
2023/07/22 05:08:46;;;;;;;7.32;6.75;;;;;;;18.72;70.26;99690.88;5073510;28;20679;-69
2023/07/22 05:11:14;;;;;;;9.15;6.32;;;;;;;18.68;70.53;99699.75;5073371;28;20703;-71
2023/07/22 05:13:41;;;;;;;7.93;6.28;;;;;;;18.65;70.78;99702.50;5073520;28;20209;-69
2023/07/22 05:16:09;;;;;;;7.18;6.53;;;;;;;18.62;71.25;99706.09;5073266;28;20293;-69
2023/07/22 05:18:38;;;;;;;7.03;6.32;;;;;;;18.62;71.43;99708.72;5073449;28;20660;-69
2023/07/22 05:21:06;;;;;;;7.38;6.72;;;;;;;18.59;71.65;99708.84;5073242;28;20552;-68
2023/07/22 05:23:36;;;;;;;7.78;7.03;;;;;;;18.58;71.44;99712.41;5071796;28;20201;-70
2023/07/22 05:26:04;;;;;;;7.55;6.80;;;;;;;18.56;71.41;99716.88;5073178;28;20221;-69
2023/07/22 05:28:32;;;;;;;6.78;6.18;;;;;;;18.57;71.58;99713.34;5072884;28;20225;-68
2023/07/22 05:31:00;;;;;;;6.50;5.90;;;;;;;18.62;71.43;99711.31;5072911;28;20245;-68
2023/07/22 05:33:28;;;;;;;9.63;6.38;;;;;;;18.66;70.99;99719.84;5072690;28;20227;-68
2023/07/22 05:35:55;;;;;;;10.13;6.00;;;;;;;18.62;70.55;99711.31;5072337;28;20323;-68
2023/07/22 05:38:24;;;;;;;8.30;5.97;;;;;;;18.62;70.78;99706.09;5072546;28;20280;-69
2023/07/22 05:40:54;;;;;;;10.43;6.32;;;;;;;18.65;70.57;99705.13;5073053;28;20655;-69
2023/07/22 05:43:22;;;;;;;14.20;6.47;;;;;;;18.65;70.60;99712.94;5072619;28;20201;-68
2023/07/22 05:45:50;;;;;;;8.30;5.45;;;;;;;18.68;70.63;99716.25;5072785;28;20208;-68
2023/07/22 05:48:18;;;;;;;7.00;6.40;;;;;;;18.68;70.43;99713.63;5072319;28;20694;-69
2023/07/22 05:50:45;;;;;;;6.75;5.95;;;;;;;18.67;70.54;99711.97;5072844;28;20719;-68
2023/07/22 05:53:13;;;;;;;5.88;5.30;;;;;;;18.68;70.28;99713.63;5069463;28;20756;-68
2023/07/22 05:55:41;;;;;;;7.18;6.22;;;;;;;18.69;70.29;99712.72;5072067;28;20224;-70
2023/07/22 05:58:18;;;;;;;7.32;5.65;;;;;;;18.71;70.52;99716.13;5072235;28;20206;-69
2023/07/22 06:00:46;;;;;;;7.20;6.10;;;;;;;18.80;70.27;99728.69;5072344;28;20255;-69
2023/07/22 06:03:14;;;;;;;6.25;5.68;;;;;;;18.88;69.81;99717.88;5072364;28;20209;-69
2023/07/22 06:05:42;;;;;;;5.80;5.30;;;;;;;18.92;69.26;99718.56;5072398;28;20250;-68
2023/07/22 06:08:10;;;;;;;6.63;5.47;;;;;;;18.94;69.23;99721.94;5072177;28;20245;-68
2023/07/22 06:10:38;;;;;;;7.60;6.00;;;;;;;18.99;69.11;99730.38;5072129;28;20197;-70
2023/07/22 06:13:06;;;;;;;6.53;5.93;;;;;;;19.05;68.68;99719.63;5072008;28;20209;-69
2023/07/22 06:15:36;;;;;;;7.30;5.53;;;;;;;19.10;68.42;99717.59;5071913;28;20205;-68
2023/07/22 06:18:07;;;;;;;6.50;5.50;;;;;;;19.10;68.36;99719.38;5071927;28;20224;-68
2023/07/22 06:20:36;;;;;;;5.72;5.20;;;;;;;19.15;68.23;99720.00;5071879;28;20213;-69
2023/07/22 06:23:04;;;;;;;5.13;4.68;;;;;;;19.38;67.83;99724.00;5070782;28;20213;-69
2023/07/22 06:25:32;;;;;;;6.35;5.13;;;;;;;19.77;66.98;99728.88;5072174;28;20193;-69
2023/07/22 06:28:00;;;;;;;5.55;4.95;;;;;;;19.84;65.27;99718.94;5071875;28;20701;-68
2023/07/22 06:30:28;;;;;;;5.57;4.95;;;;;;;19.84;65.04;99724.16;5070066;28;20201;-70
2023/07/22 06:32:57;;;;;;;5.05;4.65;;;;;;;19.76;65.27;99725.44;5071458;28;20205;-69
2023/07/22 06:35:25;;;;;;;5.90;4.70;;;;;;;19.62;65.56;99720.09;5071697;28;20201;-70
2023/07/22 06:37:53;;;;;;;5.65;5.00;;;;;;;19.68;65.53;99732.84;5071957;28;20727;-70
2023/07/22 06:40:21;;;;;;;6.50;4.95;;;;;;;19.83;65.05;99727.72;5061079;28;20674;-69
2023/07/22 06:42:49;;;;;;;4.75;4.35;;;;;;;19.95;63.47;99727.03;5071017;28;20204;-69
2023/07/22 06:45:17;;;;;;;5.30;3.88;;;;;;;20.14;62.29;99729.47;5070444;28;20664;-70
2023/07/22 06:47:46;;;;;;;13.70;4.55;;;;;;;20.36;61.92;99723.84;5071481;28;20209;-70
2023/07/22 06:50:16;;;;;;;4.90;3.97;;;;;;;20.58;61.45;99729.56;5071162;28;20201;-69
2023/07/22 06:52:44;;;;;;;5.18;4.07;;;;;;;20.83;60.08;99741.25;5071550;28;20685;-68
2023/07/22 06:55:12;;;;;;;4.70;4.22;;;;;;;20.83;59.27;99743.88;5071059;28;20208;-68
2023/07/22 06:57:41;;;;;;;5.18;3.42;;;;;;;20.75;59.10;99755.63;5071265;28;20197;-67
2023/07/22 07:00:10;;;;;;;4.15;3.20;;;;;;;20.61;58.94;99742.50;5070866;28;20205;-66
2023/07/22 07:02:38;;;;;;;3.80;3.13;;;;;;;20.46;58.71;99745.97;5069224;28;20204;-67
2023/07/22 07:05:07;;;;;;;3.75;2.63;;;;;;;20.39;58.74;99752.47;5064275;28;20203;-68
2023/07/22 07:07:36;;;;;;;3.00;2.72;;;;;;;20.38;58.93;99753.41;5070274;28;20205;-67
2023/07/22 07:10:05;;;;;;;4.50;2.50;;;;;;;20.31;58.05;99749.44;5071162;28;20245;-61
2023/07/22 07:12:33;;;;;;;2.47;2.28;;;;;;;20.28;57.69;99748.69;5071169;28;20656;-62
2023/07/22 07:15:01;;;;;;;2.63;2.15;;;;;;;20.29;57.44;99752.16;5070850;28;20202;-62
2023/07/22 07:17:29;;;;;;;7.88;2.58;;;;;;;20.37;57.63;99754.34;5070725;28;20557;-67
2023/07/22 07:19:58;;;;;;;3.63;2.70;;;;;;;20.50;57.73;99768.44;5070970;28;20316;-63
2023/07/22 07:22:26;;;;;;;3.05;2.70;;;;;;;20.62;57.18;99761.66;5071408;28;20599;-67
2023/07/22 07:24:55;;;;;;;3.17;2.60;;;;;;;20.66;57.00;99766.66;5070911;28;20209;-66
2023/07/22 07:27:23;;;;;;;3.85;2.72;;;;;;;20.74;57.19;99766.19;5061489;28;20201;-68
2023/07/22 07:29:51;;;;;;;3.28;2.97;;;;;;;21.02;56.16;99773.28;5070962;28;20614;-70
2023/07/22 07:32:23;;;;;;;2.70;2.50;;;;;;;21.28;55.40;99770.88;5067782;28;20296;-67
2023/07/22 07:34:51;;;;;;;3.10;2.78;;;;;;;22.00;54.25;99772.56;5070271;28;20660;-67
2023/07/22 07:37:19;;;;;;;4.22;2.95;;;;;;;23.07;51.85;99762.97;5069841;28;20201;-67
2023/07/22 07:39:47;;;;;;;2.80;2.40;;;;;;;24.12;48.60;99761.81;5062499;28;20197;-67
2023/07/22 07:42:16;;;;;;;5.78;2.42;;;;;;;25.45;46.79;99767.66;5070898;28;20217;-68
2023/07/22 07:44:44;;;;;;;3.30;2.65;;;;;;;27.17;42.16;99759.84;5070897;28;20668;-66
2023/07/22 07:47:12;;;;;;;2.63;2.40;;;;;;;29.02;37.56;99770.88;5069346;28;20197;-66
2023/07/22 07:49:40;;;;;;;3.25;2.25;;;;;;;30.29;34.39;99772.81;5070709;28;20221;-68
2023/07/22 07:52:08;;;;;;;5.13;2.42;;;;;;;31.12;32.46;99769.88;5070874;28;20615;-71
2023/07/22 07:54:36;;;;;;;7.22;1.95;;;;;;;31.58;31.26;99769.66;5070814;28;20235;-70
2023/07/22 07:57:06;;;;;;;2.38;1.98;;;;;;;31.59;31.70;99769.47;5069235;28;20205;-68
2023/07/22 07:59:35;;;;;;;4.22;1.70;;;;;;;32.31;29.36;99777.88;5068940;28;20201;-61
2023/07/22 08:02:09;;;;;;;4.35;1.77;;;;;;;31.01;30.16;99783.44;5070466;28;20572;-62
2023/07/22 08:04:37;;;;;;;2.58;1.88;;;;;;;30.52;31.35;99783.84;5070519;28;20216;-62
2023/07/22 08:07:07;;;;;;;1.77;1.67;;;;;;;30.70;31.56;99791.81;5070716;28;20645;-61
2023/07/22 08:09:36;;;;;;;3.78;1.98;;;;;;;30.56;30.38;99787.03;5070364;28;20213;-63
2023/07/22 08:12:04;;;;;;;2.50;1.77;;;;;;;29.91;31.18;99800.47;5070208;28;20202;-65
2023/07/22 08:14:33;;;;;;;1.67;1.58;;;;;;;29.18;32.72;99794.97;5070479;28;20217;-61
2023/07/22 08:17:02;;;;;;;2.88;1.48;;;;;;;27.87;35.04;99805.03;5068898;28;20628;-62
2023/07/22 08:19:31;;;;;;;2.78;1.75;;;;;;;26.92;36.25;99813.13;5072469;28;20193;-62
2023/07/22 08:21:59;;;;;;;2.83;1.73;;;;;;;26.12;37.91;99809.00;5074438;28;20205;-63
2023/07/22 08:24:27;;;;;;;2.65;1.85;;;;;;;25.52;39.18;99818.16;5074108;28;20209;-64
2023/07/22 08:26:55;;;;;;;2.67;1.65;;;;;;;24.69;41.32;99821.72;5074242;28;20247;-63
2023/07/22 08:29:23;;;;;;;1.70;1.60;;;;;;;24.11;41.07;99826.75;5074242;28;20750;-64
2023/07/22 08:31:51;;;;;;;3.33;1.77;;;;;;;23.66;42.02;99824.69;5073870;28;20236;-62
2023/07/22 08:34:21;;;;;;;1.75;1.52;;;;;;;23.51;43.02;99832.69;5074164;28;20197;-63
2023/07/22 08:36:50;;;;;;;3.00;1.70;;;;;;;23.37;42.76;99835.41;5071227;28;20619;-64
2023/07/22 08:39:18;;;;;;;2.65;1.58;;;;;;;23.05;44.20;99822.69;5062557;28;20287;-64
2023/07/22 08:41:49;;;;;;;3.50;1.80;;;;;;;23.12;44.66;99831.84;5070527;28;20322;-64
2023/07/22 08:44:20;;;;;;;2.28;1.50;;;;;;;23.31;44.29;99830.59;5074019;28;20649;-62
2023/07/22 08:46:56;;;;;;;2.20;1.50;;;;;;;23.43;43.93;99832.38;5073691;28;20252;-64
2023/07/22 08:49:27;;;;;;;2.20;1.70;;;;;;;23.51;43.27;99834.50;5073758;28;20584;-64
2023/07/22 08:51:57;;;;;;;2.58;1.30;;;;;;;23.51;41.97;99842.38;5072958;28;20213;-61
2023/07/22 08:54:25;;;;;;;2.25;1.50;;;;;;;23.48;42.16;99839.94;5073536;28;20659;-62
2023/07/22 08:56:54;;;;;;;4.00;1.67;;;;;;;23.49;42.28;99844.25;5073560;28;20210;-65
2023/07/22 08:59:22;;;;;;;3.20;1.45;;;;;;;23.54;42.58;99843.00;5072176;28;20201;-66
2023/07/22 09:01:52;;;;;;;3.33;1.67;;;;;;;23.49;43.10;99842.50;5073782;28;20656;-66
2023/07/22 09:04:21;;;;;;;1.95;1.35;;;;;;;23.46;44.01;99855.00;5073628;28;20197;-66
2023/07/22 09:06:50;;;;;;;2.38;1.70;;;;;;;23.30;43.68;99856.03;5073469;28;20656;-64
2023/07/22 09:09:19;;;;;;;2.15;1.55;;;;;;;23.28;44.24;99857.94;5058731;28;20205;-62
2023/07/22 09:11:48;;;;;;;3.88;2.30;;;;;;;23.27;44.51;99851.00;5068559;28;20523;-63
2023/07/22 09:14:19;;;;;;;1.95;1.67;;;;;;;23.37;44.61;99852.03;5072945;28;20193;-64
2023/07/22 09:17:05;;;;;;;1.92;1.60;;;;;;;23.59;44.06;99856.69;5073154;28;20224;-62
2023/07/22 09:19:33;;;;;;;4.90;1.95;;;;;;;23.53;43.28;99843.13;5059139;28;20248;-64
2023/07/22 09:22:02;;;;;;;2.60;1.80;;;;;;;23.58;44.09;99855.00;5073190;28;20566;-63
2023/07/22 09:24:30;;;;;;;2.75;2.05;;;;;;;23.69;43.87;99845.56;5072888;28;20290;-63
2023/07/22 09:27:00;;;;;;;4.75;2.00;;;;;;;23.77;43.10;99861.66;5071060;28;20676;-61
2023/07/22 09:29:35;;;;;;;1.98;1.60;;;;;;;23.40;43.56;99866.78;5057979;28;20202;-62
2023/07/22 09:32:04;;;;;;;1.65;1.55;;;;;;;23.14;44.34;99869.34;5059846;28;20263;-62
2023/07/22 09:34:32;;;;;;;2.05;1.85;;;;;;;23.09;44.84;99860.94;5071882;28;20244;-61
2023/07/22 09:37:03;;;;;;;1.83;1.73;;;;;;;23.01;44.15;99855.34;5072594;28;20233;-62
2023/07/22 09:39:31;;;;;;;2.30;1.60;;;;;;;23.19;43.84;99852.44;5061202;28;20210;-63
2023/07/22 09:42:01;;;;;;;2.15;1.92;;;;;;;23.50;42.76;99859.94;5071643;28;20659;-62
2023/07/22 09:44:31;;;;;;;1.70;1.60;;;;;;;23.54;42.46;99863.22;5071888;28;20292;-66
2023/07/22 09:47:06;;;;;;;2.30;1.92;;;;;;;23.60;42.81;99861.00;5068570;28;20570;-64
2023/07/22 09:49:34;;;;;;;2.28;1.50;;;;;;;24.03;41.07;99860.66;5072407;28;20208;-64
2023/07/22 09:52:12;;;;;;;1.73;1.40;;;;;;;25.13;39.34;99862.41;5072306;28;20204;-62
2023/07/22 09:54:48;;;;;;;2.70;1.65;;;;;;;26.33;36.89;99863.72;5071091;28;20205;-62
2023/07/22 09:57:16;;;;;;;1.60;1.50;;;;;;;26.25;36.71;99867.84;5072481;28;20643;-65
2023/07/22 09:59:44;;;;;;;1.70;1.50;;;;;;;25.89;37.17;99868.09;5072602;28;20217;-65
2023/07/22 10:02:12;;;;;;;1.83;1.50;;;;;;;25.21;38.61;99880.28;5072375;28;20205;-69
2023/07/22 10:04:41;;;;;;;2.50;1.75;;;;;;;25.31;38.67;99876.00;5070389;28;20197;-66
2023/07/22 10:07:11;;;;;;;1.30;1.20;;;;;;;26.08;35.90;99880.69;5069817;28;20946;-63
2023/07/22 10:09:40;;;;;;;1.60;1.33;;;;;;;26.12;34.86;99882.13;5060585;28;20254;-63
2023/07/22 10:12:09;;;;;;;2.50;1.17;;;;;;;26.05;33.69;99880.94;5072024;28;20788;-63
2023/07/22 10:14:37;;;;;;;1.25;1.02;;;;;;;26.65;33.00;99893.69;5071915;28;20209;-68
2023/07/22 10:17:08;;;;;;;1.45;1.33;;;;;;;27.53;30.70;99878.56;5071884;28;20212;-63
2023/07/22 10:19:37;;;;;;;0.95;0.93;;;;;;;28.37;29.62;99882.72;5058357;28;20209;-64
2023/07/22 10:22:07;;;;;;;1.20;1.08;;;;;;;29.09;28.52;99876.28;5071942;28;20648;-62
2023/07/22 10:24:37;;;;;;;1.40;0.98;;;;;;;29.00;28.77;99876.25;5071705;28;20296;-64
2023/07/22 10:27:07;;;;;;;0.98;0.93;;;;;;;29.48;28.98;99876.19;5071681;28;20270;-62
2023/07/22 10:29:36;;;;;;;2.08;1.23;;;;;;;29.79;28.12;99871.53;5071500;28;20201;-66
2023/07/22 10:32:05;;;;;;;2.70;0.95;;;;;;;30.56;27.92;99861.47;5071775;28;20393;-63
2023/07/22 10:34:33;;;;;;;0.88;0.88;;;;;;;31.82;26.15;99862.19;5071805;28;20216;-63
2023/07/22 10:37:00;;;;;;;2.72;2.33;;;;;;;32.34;25.04;99867.41;5071461;28;20205;-63
2023/07/22 10:39:29;;;;;;;2.10;0.90;;;;;;;32.56;24.22;99871.31;5060044;28;20327;-67
2023/07/22 10:42:04;;;;;;;2.25;1.10;;;;;;;31.71;24.77;99874.78;5069021;28;20197;-62
2023/07/22 10:44:33;;;;;;;2.30;1.00;;;;;;;30.05;26.49;99865.56;5054057;28;20204;-65
2023/07/22 10:47:03;;;;;;;1.40;1.10;;;;;;;28.88;28.50;99876.38;5071141;28;20202;-61
2023/07/22 10:49:44;;;;;;;1.30;1.08;;;;;;;27.53;30.00;99884.69;5071612;28;20552;-66
2023/07/22 10:52:14;;;;;;;3.55;1.30;;;;;;;26.38;32.54;99886.16;5071015;28;20318;-63
2023/07/22 10:54:42;;;;;;;2.47;1.15;;;;;;;25.97;33.26;99886.81;5071277;28;20205;-62
2023/07/22 10:57:28;;;;;;;2.15;1.23;;;;;;;25.58;34.96;99893.34;5071137;28;20259;-65
2023/07/22 10:59:57;;;;;;;1.13;1.02;;;;;;;25.64;34.69;99893.72;5071458;28;20675;-62
2023/07/22 11:02:26;;;;;;;0.82;0.82;;;;;;;26.88;32.96;99886.56;5071132;28;20215;-63
2023/07/22 11:04:58;;;;;;;1.20;1.10;;;;;;;28.25;30.32;99873.19;5071480;28;20197;-61
2023/07/22 11:07:32;;;;;;;2.67;1.27;;;;;;;29.08;29.34;99877.22;5051856;28;20228;-61
2023/07/22 11:10:13;;;;;;;2.53;1.00;;;;;;;29.81;27.96;99874.88;5071064;28;20216;-63
2023/07/22 11:12:44;;;;;;;1.73;1.13;;;;;;;30.06;26.44;99880.50;5053377;28;20198;-62
2023/07/22 11:15:15;;;;;;;4.60;1.00;;;;;;;29.47;26.48;99876.34;5069430;28;20606;-66
2023/07/22 11:17:43;;;;;;;1.25;1.15;;;;;;;28.69;27.69;99881.69;5070781;28;20205;-63
2023/07/22 11:20:11;;;;;;;1.10;1.05;;;;;;;28.11;28.94;99879.69;5068860;28;20201;-63
2023/07/22 11:22:40;;;;;;;1.60;1.00;;;;;;;27.37;29.93;99890.44;5070684;28;20201;-64
2023/07/22 11:25:09;;;;;;;1.20;1.13;;;;;;;26.53;31.17;99893.88;5056716;28;20209;-64
2023/07/22 11:27:37;;;;;;;3.28;1.35;;;;;;;26.50;31.58;99885.22;5070274;28;20258;-67
2023/07/22 11:30:11;;;;;;;1.23;0.93;;;;;;;26.95;30.96;99889.50;5071080;28;20205;-62
2023/07/22 11:32:43;;;;;;;1.85;1.00;;;;;;;27.59;30.66;99886.81;5069474;28;20232;-64
2023/07/22 11:35:11;;;;;;;1.38;0.90;;;;;;;28.59;29.56;99897.56;5070565;28;20197;-64
2023/07/22 11:37:39;;;;;;;3.08;1.15;;;;;;;29.05;28.59;99879.31;5067002;28;20212;-63
2023/07/22 11:40:12;;;;;;;1.73;1.02;;;;;;;29.44;29.29;99879.28;5057718;28;20208;-62
2023/07/22 11:42:40;;;;;;;1.92;1.25;;;;;;;29.66;28.06;99880.81;5067813;28;20197;-63